Heaters, WV (26627)

4:18 AM EDT en Agosto 31, 2014 (GMT -0400)
Grapevine Circle | Change Station
CLOSE
Current Station
Estación meteorológica personal
Location: Gassaway, WV
Altura: 1270 ft
Estaciones meteorológicas cercanas

Alt 1270 ft 38.66 °N, 80.74 °W | Updated 7 minutes ago

Parcialmente nublado
Parcialmente nublado
74.7 ° F
Sensación térmica 76 ° F
N
0.0
Viento Variable Viento desde SO
Gusts 1.0 mph

Hoy
Alta -- | Baja -- ° F
--% Posibilidad de precipitaciones
Ayer
Alta -- | Baja -- ° F
Precip. -- pul
6:50 AM 7:54 PM
Creciente, 29% visible
Presión 30.11 pul
Visibilidad 10.0 Millas
Nubes Despejado
Índice de calor 76 ° F
Punto de rocío 67 ° F
Humedad 76%
Precipitaciones 0.00 pul
Espesor de la nieve No disponible.
UV 0 de una escala de 12
Polen 9.90 de una escala de 12
Calidad del aire No disponible.
Flu Activity No disponible.
METAR KW22 310755Z AUTO 20005KT 10SM CLR 23/18 A3011 RMK AO2

More Conditions Fewer Conditions

Presión 30.11 pul
Visibilidad 10.0 Millas
Nubes Despejado
Índice de calor 76 ° F
Punto de rocío 67 ° F
Humedad 76%
Precipitaciones 0.00 pul
Espesor de la nieve No disponible.
UV 0 de una escala de 12
Polen 9.90 de una escala de 12
Calidad del aire No disponible.
Flu Activity No disponible.
METAR KW22 310755Z AUTO 20005KT 10SM CLR 23/18 A3011 RMK AO2

More Conditions Fewer Conditions

10-Day Weather Forecast

Almanac

Astronomía

Aug. 31, 2014 Salida Puesta
Hora real 6:50 AM EDT 7:54 PM EDT
Crepúsculo civil 6:23 AM EDT 8:21 PM EDT
Crepúsculo náutico 5:50 AM EDT 8:53 PM EDT
Crepúsculo astronómico 5:17 AM EDT 9:27 PM EDT
Luna 12:31 PM EDT 11:12 PM EDT
Horas de luz 13h 58m
Horas de luz
13h 03m
Tomorrow will be 2m 25s shorter.
Creciente, 29% of the Moon is Illuminated
Hoy
Creciente
Sep 2
Cuarto creciente
Sep 8
Luna llena
Sep 15
Cuarto menguante
Sep 24
Nueva

Extremos de hoy

Máximos del estado Bajos del estado

Community

WunderPhotos

Upload Photos

1,748,820 ¡fotos cargadas!

Nearby

Grosos de nieve

Estación Profundido Altura
No tenemos constancia de nieve nueva.

Actividad de terremotos

Ciudad Distance Mag. Tiempo y dato
No hay informes recientes de la actividad sísmica.
Magnitud mínima muestra es 2,5.

Temperaturas de aguas costeras

Lugar Temperatura
Sin partes meteorológicos de las estaciones

Estaciones meteorológicas cercanas